sensor_id;sensor_type;location;lat;lon;timestamp;pressure;altitude;pressure_sealevel;temperature;humidity
33161;BME280;19522;45.656;11.302;2023-05-07T00:00:23;98243.41;;;15.64;89.40
33161;BME280;19522;45.656;11.302;2023-05-07T00:02:48;98323.78;;;16.14;89.89
33161;BME280;19522;45.656;11.302;2023-05-07T00:05:16;98255.72;;;15.73;89.38
33161;BME280;19522;45.656;11.302;2023-05-07T00:07:42;98245.28;;;15.64;89.40
33161;BME280;19522;45.656;11.302;2023-05-07T00:10:08;98341.06;;;16.14;89.48
33161;BME280;19522;45.656;11.302;2023-05-07T00:12:33;98260.66;;;15.65;89.74
33161;BME280;19522;45.656;11.302;2023-05-07T00:15:01;98287.44;;;15.63;91.08
33161;BME280;19522;45.656;11.302;2023-05-07T00:17:26;98275.19;;;15.40;91.75
33161;BME280;19522;45.656;11.302;2023-05-07T00:19:52;98213.34;;;14.88;93.40
33161;BME280;19522;45.656;11.302;2023-05-07T00:22:17;98256.09;;;15.08;93.67
33161;BME280;19522;45.656;11.302;2023-05-07T00:24:43;98266.75;;;15.16;92.98
33161;BME280;19522;45.656;11.302;2023-05-07T00:27:08;98319.84;;;15.59;93.12
33161;BME280;19522;45.656;11.302;2023-05-07T00:29:33;98317.97;;;15.60;93.04
33161;BME280;19522;45.656;11.302;2023-05-07T00:31:59;98343.09;;;15.75;92.80
33161;BME280;19522;45.656;11.302;2023-05-07T00:34:25;98250.41;;;15.35;92.06
33161;BME280;19522;45.656;11.302;2023-05-07T00:36:50;98338.31;;;15.96;91.91
33161;BME280;19522;45.656;11.302;2023-05-07T00:39:15;98345.53;;;15.83;92.55
33161;BME280;19522;45.656;11.302;2023-05-07T00:41:41;98258.47;;;15.30;92.23
33161;BME280;19522;45.656;11.302;2023-05-07T00:44:06;98304.72;;;15.56;92.69
33161;BME280;19522;45.656;11.302;2023-05-07T00:46:32;98252.41;;;15.21;92.74
33161;BME280;19522;45.656;11.302;2023-05-07T00:48:59;98247.22;;;15.13;93.06
33161;BME280;19522;45.656;11.302;2023-05-07T00:51:25;98221.16;;;15.10;92.69
33161;BME280;19522;45.656;11.302;2023-05-07T00:53:54;98291.03;;;15.56;92.09
33161;BME280;19522;45.656;11.302;2023-05-07T00:56:21;98260.91;;;15.38;91.72
33161;BME280;19522;45.656;11.302;2023-05-07T00:58:47;98335.84;;;15.87;92.26
33161;BME280;19522;45.656;11.302;2023-05-07T01:01:12;98273.38;;;15.34;92.59
33161;BME280;19522;45.656;11.302;2023-05-07T01:03:42;98339.97;;;15.71;93.11
33161;BME280;19522;45.656;11.302;2023-05-07T01:06:08;98273.03;;;15.23;93.30
33161;BME280;19522;45.656;11.302;2023-05-07T01:08:38;98290.84;;;15.33;93.61
33161;BME280;19522;45.656;11.302;2023-05-07T01:11:05;98335.50;;;15.77;92.96
33161;BME280;19522;45.656;11.302;2023-05-07T01:13:32;98259.19;;;15.18;92.96
33161;BME280;19522;45.656;11.302;2023-05-07T01:15:58;98339.28;;;15.76;92.73
33161;BME280;19522;45.656;11.302;2023-05-07T01:18:24;98290.66;;;15.53;92.41
33161;BME280;19522;45.656;11.302;2023-05-07T01:20:51;98343.47;;;15.79;92.52
33161;BME280;19522;45.656;11.302;2023-05-07T01:23:17;98317.06;;;15.66;92.56
33161;BME280;19522;45.656;11.302;2023-05-07T01:25:43;98250.63;;;15.33;91.95
33161;BME280;19522;45.656;11.302;2023-05-07T01:28:08;98301.19;;;15.74;91.29
33161;BME280;19522;45.656;11.302;2023-05-07T01:30:34;98337.69;;;15.94;91.77
33161;BME280;19522;45.656;11.302;2023-05-07T01:33:07;98300.50;;;15.86;90.87
33161;BME280;19522;45.656;11.302;2023-05-07T01:35:42;98274.50;;;15.70;90.91
33161;BME280;19522;45.656;11.302;2023-05-07T01:38:11;98335.84;;;15.87;91.40
33161;BME280;19522;45.656;11.302;2023-05-07T01:40:37;98286.91;;;15.72;91.21
33161;BME280;19522;45.656;11.302;2023-05-07T01:43:03;98193.09;;;15.21;90.62
33161;BME280;19522;45.656;11.302;2023-05-07T01:45:30;98300.16;;;15.76;91.21
33161;BME280;19522;45.656;11.302;2023-05-07T01:47:58;98326.59;;;15.88;91.34
33161;BME280;19522;45.656;11.302;2023-05-07T01:50:24;98220.16;;;15.30;91.34
33161;BME280;19522;45.656;11.302;2023-05-07T01:52:51;98282.88;;;15.75;91.89
33161;BME280;19522;45.656;11.302;2023-05-07T01:55:17;98327.34;;;15.96;92.00
33161;BME280;19522;45.656;11.302;2023-05-07T01:57:42;98206.78;;;15.21;91.98
33161;BME280;19522;45.656;11.302;2023-05-07T02:00:08;98313.94;;;15.87;91.98
33161;BME280;19522;45.656;11.302;2023-05-07T02:02:35;98308.47;;;15.87;91.83
33161;BME280;19522;45.656;11.302;2023-05-07T02:05:00;98155.88;;;14.95;91.55
33161;BME280;19522;45.656;11.302;2023-05-07T02:07:29;98266.75;;;15.41;93.07
33161;BME280;19522;45.656;11.302;2023-05-07T02:09:58;98315.34;;;15.71;94.20
33161;BME280;19522;45.656;11.302;2023-05-07T02:12:23;98321.09;;;15.63;94.83
33161;BME280;19522;45.656;11.302;2023-05-07T02:14:49;98321.91;;;15.64;94.43
33161;BME280;19522;45.656;11.302;2023-05-07T02:17:15;98234.06;;;15.03;95.33
33161;BME280;19522;45.656;11.302;2023-05-07T02:19:40;98207.91;;;14.82;95.86
33161;BME280;19522;45.656;11.302;2023-05-07T02:22:07;98316.53;;;15.57;95.53
33161;BME280;19522;45.656;11.302;2023-05-07T02:24:32;98206.81;;;14.89;95.24
33161;BME280;19522;45.656;11.302;2023-05-07T02:26:58;98214.75;;;14.98;95.31
33161;BME280;19522;45.656;11.302;2023-05-07T02:29:23;98150.69;;;14.55;94.97
33161;BME280;19522;45.656;11.302;2023-05-07T02:31:49;98198.47;;;14.84;95.26
33161;BME280;19522;45.656;11.302;2023-05-07T02:34:16;98218.28;;;15.05;95.08
33161;BME280;19522;45.656;11.302;2023-05-07T02:36:42;98209.31;;;14.91;95.03
33161;BME280;19522;45.656;11.302;2023-05-07T02:39:08;98310.31;;;15.68;94.52
33161;BME280;19522;45.656;11.302;2023-05-07T02:41:34;98258.03;;;15.33;94.55
33161;BME280;19522;45.656;11.302;2023-05-07T02:43:59;98300.59;;;15.47;94.88
33161;BME280;19522;45.656;11.302;2023-05-07T02:46:25;98234.69;;;15.05;94.53
33161;BME280;19522;45.656;11.302;2023-05-07T02:48:50;98201.25;;;15.03;93.93
33161;BME280;19522;45.656;11.302;2023-05-07T02:51:19;98231.88;;;15.11;94.23
33161;BME280;19522;45.656;11.302;2023-05-07T02:53:45;98295.38;;;15.46;94.63
33161;BME280;19522;45.656;11.302;2023-05-07T02:56:11;98270.16;;;15.37;94.42
33161;BME280;19522;45.656;11.302;2023-05-07T02:58:36;98187.44;;;14.91;94.29
33161;BME280;19522;45.656;11.302;2023-05-07T03:01:02;98249.56;;;15.34;93.17
33161;BME280;19522;45.656;11.302;2023-05-07T03:03:27;98259.84;;;15.39;93.76
33161;BME280;19522;45.656;11.302;2023-05-07T03:05:56;98305.00;;;15.73;93.60
33161;BME280;19522;45.656;11.302;2023-05-07T03:08:22;98300.66;;;15.66;94.37
33161;BME280;19522;45.656;11.302;2023-05-07T03:10:47;98187.88;;;14.94;94.15
33161;BME280;19522;45.656;11.302;2023-05-07T03:13:16;98279.72;;;15.53;94.32
33161;BME280;19522;45.656;11.302;2023-05-07T03:15:41;98196.75;;;14.90;95.19
33161;BME280;19522;45.656;11.302;2023-05-07T03:18:07;98211.56;;;15.01;95.63
33161;BME280;19522;45.656;11.302;2023-05-07T03:20:32;98127.81;;;14.49;95.72
33161;BME280;19522;45.656;11.302;2023-05-07T03:22:58;98196.97;;;14.82;96.35
33161;BME280;19522;45.656;11.302;2023-05-07T03:25:23;98216.94;;;14.89;97.09
33161;BME280;19522;45.656;11.302;2023-05-07T03:27:49;98230.13;;;14.92;96.81
33161;BME280;19522;45.656;11.302;2023-05-07T03:30:14;98202.41;;;14.56;97.70
33161;BME280;19522;45.656;11.302;2023-05-07T03:32:40;98168.47;;;14.39;98.11
33161;BME280;19522;45.656;11.302;2023-05-07T03:35:05;98303.16;;;15.17;98.38
33161;BME280;19522;45.656;11.302;2023-05-07T03:37:31;98257.81;;;15.02;97.26
33161;BME280;19522;45.656;11.302;2023-05-07T03:39:57;98064.72;;;13.61;98.02
33161;BME280;19522;45.656;11.302;2023-05-07T03:42:22;98304.91;;;15.11;98.41
33161;BME280;19522;45.656;11.302;2023-05-07T03:44:48;98188.66;;;14.38;98.67
33161;BME280;19522;45.656;11.302;2023-05-07T03:47:13;98158.69;;;14.24;98.05
33161;BME280;19522;45.656;11.302;2023-05-07T03:49:39;98285.16;;;15.02;97.43
33161;BME280;19522;45.656;11.302;2023-05-07T03:52:05;98204.44;;;14.68;96.61
33161;BME280;19522;45.656;11.302;2023-05-07T03:54:31;98295.34;;;15.20;96.48
33161;BME280;19522;45.656;11.302;2023-05-07T03:56:56;98319.41;;;15.37;96.34
33161;BME280;19522;45.656;11.302;2023-05-07T03:59:22;98198.97;;;14.68;96.18
33161;BME280;19522;45.656;11.302;2023-05-07T04:01:48;98276.03;;;15.15;96.82
33161;BME280;19522;45.656;11.302;2023-05-07T04:04:14;98229.66;;;15.02;96.29
33161;BME280;19522;45.656;11.302;2023-05-07T04:06:40;98238.75;;;14.95;96.62
33161;BME280;19522;45.656;11.302;2023-05-07T04:09:06;98208.03;;;14.68;97.17
33161;BME280;19522;45.656;11.302;2023-05-07T04:11:32;98237.16;;;14.81;97.53
33161;BME280;19522;45.656;11.302;2023-05-07T04:13:57;98215.81;;;14.64;98.00
33161;BME280;19522;45.656;11.302;2023-05-07T04:16:23;98231.06;;;14.79;97.23
33161;BME280;19522;45.656;11.302;2023-05-07T04:18:48;98184.16;;;14.50;97.05
33161;BME280;19522;45.656;11.302;2023-05-07T04:21:15;98312.72;;;15.33;97.12
33161;BME280;19522;45.656;11.302;2023-05-07T04:23:41;98217.06;;;14.62;97.67
33161;BME280;19522;45.656;11.302;2023-05-07T04:26:09;98314.88;;;15.24;97.58
33161;BME280;19522;45.656;11.302;2023-05-07T04:28:35;98316.47;;;15.13;98.38
33161;BME280;19522;45.656;11.302;2023-05-07T04:31:01;98270.47;;;14.64;99.23
33161;BME280;19522;45.656;11.302;2023-05-07T04:33:27;98295.25;;;14.63;100.00
33161;BME280;19522;45.656;11.302;2023-05-07T04:35:52;98317.06;;;14.83;100.00
33161;BME280;19522;45.656;11.302;2023-05-07T04:38:18;98299.63;;;14.77;100.00
33161;BME280;19522;45.656;11.302;2023-05-07T04:40:46;98263.59;;;14.55;100.00
33161;BME280;19522;45.656;11.302;2023-05-07T04:43:12;98266.25;;;14.62;100.00
33161;BME280;19522;45.656;11.302;2023-05-07T04:45:38;98306.28;;;14.88;100.00
33161;BME280;19522;45.656;11.302;2023-05-07T04:48:06;98311.50;;;14.96;100.00
33161;BME280;19522;45.656;11.302;2023-05-07T04:50:32;98216.91;;;14.57;99.48
33161;BME280;19522;45.656;11.302;2023-05-07T04:53:00;98203.72;;;14.47;99.17
33161;BME280;19522;45.656;11.302;2023-05-07T04:55:26;98204.28;;;14.56;98.99
33161;BME280;19522;45.656;11.302;2023-05-07T04:57:52;98241.22;;;14.72;99.65
33161;BME280;19522;45.656;11.302;2023-05-07T05:00:18;98236.72;;;14.84;99.00
33161;BME280;19522;45.656;11.302;2023-05-07T05:02:45;98286.25;;;15.26;97.85
33161;BME280;19522;45.656;11.302;2023-05-07T05:05:10;98314.91;;;15.49;97.10
33161;BME280;19522;45.656;11.302;2023-05-07T05:07:36;98332.72;;;15.58;96.63
33161;BME280;19522;45.656;11.302;2023-05-07T05:10:04;98265.31;;;15.14;96.27
33161;BME280;19522;45.656;11.302;2023-05-07T05:12:31;98289.56;;;15.35;95.77
33161;BME280;19522;45.656;11.302;2023-05-07T05:14:57;98349.47;;;15.69;96.12
33161;BME280;19522;45.656;11.302;2023-05-07T05:17:22;98282.84;;;15.31;96.01
33161;BME280;19522;45.656;11.302;2023-05-07T05:19:48;98280.00;;;15.19;96.86
33161;BME280;19522;45.656;11.302;2023-05-07T05:22:14;98262.63;;;15.07;97.36
33161;BME280;19522;45.656;11.302;2023-05-07T05:24:39;98267.03;;;15.08;97.40
33161;BME280;19522;45.656;11.302;2023-05-07T05:27:05;98240.00;;;14.93;96.82
33161;BME280;19522;45.656;11.302;2023-05-07T05:29:30;98346.56;;;15.64;96.71
33161;BME280;19522;45.656;11.302;2023-05-07T05:31:57;98367.69;;;15.82;96.29
33161;BME280;19522;45.656;11.302;2023-05-07T05:34:22;98280.91;;;15.38;96.48
33161;BME280;19522;45.656;11.302;2023-05-07T05:36:51;98338.84;;;15.79;96.17
33161;BME280;19522;45.656;11.302;2023-05-07T05:39:16;98321.66;;;15.72;95.46
33161;BME280;19522;45.656;11.302;2023-05-07T05:41:42;98300.44;;;15.67;95.57
33161;BME280;19522;45.656;11.302;2023-05-07T05:44:11;98279.47;;;15.54;95.29
33161;BME280;19522;45.656;11.302;2023-05-07T05:46:36;98218.16;;;15.18;94.98
33161;BME280;19522;45.656;11.302;2023-05-07T05:49:02;98355.50;;;16.22;94.93
33161;BME280;19522;45.656;11.302;2023-05-07T05:51:27;98364.97;;;16.26;94.71
33161;BME280;19522;45.656;11.302;2023-05-07T05:53:53;98286.50;;;15.94;94.35
33161;BME280;19522;45.656;11.302;2023-05-07T05:56:19;98257.59;;;15.73;94.21
33161;BME280;19522;45.656;11.302;2023-05-07T05:58:44;98343.13;;;16.38;94.41
33161;BME280;19522;45.656;11.302;2023-05-07T06:01:10;98277.06;;;16.09;93.67
33161;BME280;19522;45.656;11.302;2023-05-07T06:03:37;98306.06;;;16.35;93.59
33161;BME280;19522;45.656;11.302;2023-05-07T06:06:03;98317.84;;;16.54;93.12
33161;BME280;19522;45.656;11.302;2023-05-07T06:08:31;98297.69;;;16.48;92.96
33161;BME280;19522;45.656;11.302;2023-05-07T06:11:01;98311.06;;;16.57;92.72
33161;BME280;19522;45.656;11.302;2023-05-07T06:13:27;98274.16;;;16.41;92.34
33161;BME280;19522;45.656;11.302;2023-05-07T06:15:52;98266.00;;;16.34;92.12
33161;BME280;19522;45.656;11.302;2023-05-07T06:18:18;98364.59;;;17.08;91.38
33161;BME280;19522;45.656;11.302;2023-05-07T06:20:46;98270.31;;;16.60;90.93
33161;BME280;19522;45.656;11.302;2023-05-07T06:23:11;98305.81;;;16.86;90.11
33161;BME280;19522;45.656;11.302;2023-05-07T06:25:37;98296.38;;;16.81;89.51
33161;BME280;19522;45.656;11.302;2023-05-07T06:28:02;98267.47;;;16.67;89.54
33161;BME280;19522;45.656;11.302;2023-05-07T06:30:28;98264.91;;;16.84;89.11
33161;BME280;19522;45.656;11.302;2023-05-07T06:32:53;98176.63;;;16.21;89.62
33161;BME280;19522;45.656;11.302;2023-05-07T06:35:19;98351.69;;;17.39;89.76
33161;BME280;19522;45.656;11.302;2023-05-07T06:37:45;98352.72;;;17.69;89.14
33161;BME280;19522;45.656;11.302;2023-05-07T06:40:10;98340.75;;;17.75;88.23
33161;BME280;19522;45.656;11.302;2023-05-07T06:42:36;98355.13;;;18.01;87.22
33161;BME280;19522;45.656;11.302;2023-05-07T06:45:03;98275.09;;;17.73;86.67
33161;BME280;19522;45.656;11.302;2023-05-07T06:47:29;98290.59;;;18.03;84.68
33161;BME280;19522;45.656;11.302;2023-05-07T06:49:55;98327.81;;;18.47;84.32
33161;BME280;19522;45.656;11.302;2023-05-07T06:52:20;98339.13;;;18.74;81.93
33161;BME280;19522;45.656;11.302;2023-05-07T06:54:46;98290.16;;;18.47;80.13
33161;BME280;19522;45.656;11.302;2023-05-07T06:57:11;98337.44;;;18.73;79.26
33161;BME280;19522;45.656;11.302;2023-05-07T06:59:37;98362.47;;;19.00;79.13
33161;BME280;19522;45.656;11.302;2023-05-07T07:02:02;98250.63;;;18.36;78.41
33161;BME280;19522;45.656;11.302;2023-05-07T07:04:28;98213.56;;;18.10;78.38
33161;BME280;19522;45.656;11.302;2023-05-07T07:06:54;98322.28;;;18.71;78.11
33161;BME280;19522;45.656;11.302;2023-05-07T07:09:20;98305.78;;;18.71;78.03
33161;BME280;19522;45.656;11.302;2023-05-07T07:11:45;98251.03;;;18.57;77.74
33161;BME280;19522;45.656;11.302;2023-05-07T07:14:11;98254.78;;;18.80;76.61
33161;BME280;19522;45.656;11.302;2023-05-07T07:16:36;98278.44;;;18.93;74.38
33161;BME280;19522;45.656;11.302;2023-05-07T07:19:02;98247.69;;;18.84;73.55
33161;BME280;19522;45.656;11.302;2023-05-07T07:21:27;98289.19;;;18.94;73.45
33161;BME280;19522;45.656;11.302;2023-05-07T07:23:56;98275.69;;;18.93;73.21
33161;BME280;19522;45.656;11.302;2023-05-07T07:26:21;98281.63;;;18.90;73.06
33161;BME280;19522;45.656;11.302;2023-05-07T07:28:47;98349.16;;;19.55;72.72
33161;BME280;19522;45.656;11.302;2023-05-07T07:31:12;98307.97;;;19.14;73.69
33161;BME280;19522;45.656;11.302;2023-05-07T07:33:38;98299.31;;;19.23;72.40
33161;BME280;19522;45.656;11.302;2023-05-07T07:36:05;98245.97;;;18.95;72.98
33161;BME280;19522;45.656;11.302;2023-05-07T07:38:31;98287.22;;;19.41;74.01
33161;BME280;19522;45.656;11.302;2023-05-07T07:40:57;98284.97;;;19.21;72.45
33161;BME280;19522;45.656;11.302;2023-05-07T07:43:23;98303.25;;;19.44;72.41
33161;BME280;19522;45.656;11.302;2023-05-07T07:45:48;98268.47;;;19.38;72.84
33161;BME280;19522;45.656;11.302;2023-05-07T07:48:14;98287.88;;;19.48;72.44
33161;BME280;19522;45.656;11.302;2023-05-07T07:50:39;98281.47;;;19.42;72.01
33161;BME280;19522;45.656;11.302;2023-05-07T07:53:05;98328.59;;;19.80;72.98
33161;BME280;19522;45.656;11.302;2023-05-07T07:55:30;98281.28;;;19.49;69.54
33161;BME280;19522;45.656;11.302;2023-05-07T07:57:57;98299.31;;;19.40;72.06
33161;BME280;19522;45.656;11.302;2023-05-07T08:00:23;98261.84;;;19.05;71.76
33161;BME280;19522;45.656;11.302;2023-05-07T08:02:48;98307.25;;;19.53;71.25
33161;BME280;19522;45.656;11.302;2023-05-07T08:05:14;98356.56;;;20.06;71.71
33161;BME280;19522;45.656;11.302;2023-05-07T08:07:40;98286.31;;;19.52;72.16
33161;BME280;19522;45.656;11.302;2023-05-07T08:10:06;98259.03;;;19.34;71.93
33161;BME280;19522;45.656;11.302;2023-05-07T08:12:32;98320.09;;;19.99;72.46
33161;BME280;19522;45.656;11.302;2023-05-07T08:14:57;98339.53;;;20.09;70.26
33161;BME280;19522;45.656;11.302;2023-05-07T08:17:23;98300.06;;;19.86;66.21
33161;BME280;19522;45.656;11.302;2023-05-07T08:19:48;98333.41;;;20.24;67.37
33161;BME280;19522;45.656;11.302;2023-05-07T08:22:14;98364.19;;;20.77;67.52
33161;BME280;19522;45.656;11.302;2023-05-07T08:24:40;98273.63;;;20.24;65.31
33161;BME280;19522;45.656;11.302;2023-05-07T08:27:05;98321.75;;;20.61;66.90
33161;BME280;19522;45.656;11.302;2023-05-07T08:29:31;98339.88;;;20.96;63.81
33161;BME280;19522;45.656;11.302;2023-05-07T08:31:56;98273.94;;;21.00;64.97
33161;BME280;19522;45.656;11.302;2023-05-07T08:34:22;98363.81;;;21.45;64.88
33161;BME280;19522;45.656;11.302;2023-05-07T08:36:48;98293.81;;;21.02;61.66
33161;BME280;19522;45.656;11.302;2023-05-07T08:39:15;98291.38;;;20.56;63.44
33161;BME280;19522;45.656;11.302;2023-05-07T08:41:44;98368.03;;;20.98;62.58
33161;BME280;19522;45.656;11.302;2023-05-07T08:44:12;98296.03;;;21.00;62.69
33161;BME280;19522;45.656;11.302;2023-05-07T08:46:39;98359.09;;;21.68;60.79
33161;BME280;19522;45.656;11.302;2023-05-07T08:49:07;98366.25;;;21.69;60.66
33161;BME280;19522;45.656;11.302;2023-05-07T08:51:33;98227.25;;;20.98;59.68
33161;BME280;19522;45.656;11.302;2023-05-07T08:53:59;98337.16;;;21.94;59.95
33161;BME280;19522;45.656;11.302;2023-05-07T08:56:26;98308.81;;;21.71;58.96
33161;BME280;19522;45.656;11.302;2023-05-07T08:58:52;98351.19;;;21.82;59.03
33161;BME280;19522;45.656;11.302;2023-05-07T09:01:21;98360.81;;;21.79;58.71
33161;BME280;19522;45.656;11.302;2023-05-07T09:03:50;98360.97;;;22.00;58.76
33161;BME280;19522;45.656;11.302;2023-05-07T09:06:16;98314.47;;;21.92;59.42
33161;BME280;19522;45.656;11.302;2023-05-07T09:08:52;98266.91;;;21.85;57.22
33161;BME280;19522;45.656;11.302;2023-05-07T09:11:22;98300.22;;;22.10;56.32
33161;BME280;19522;45.656;11.302;2023-05-07T09:13:52;98240.22;;;21.63;56.74
33161;BME280;19522;45.656;11.302;2023-05-07T09:16:20;98354.03;;;22.35;58.76
33161;BME280;19522;45.656;11.302;2023-05-07T09:18:46;98355.56;;;22.59;58.01
33161;BME280;19522;45.656;11.302;2023-05-07T09:21:17;98323.69;;;22.46;55.74
33161;BME280;19522;45.656;11.302;2023-05-07T09:23:42;98339.59;;;22.28;56.41
33161;BME280;19522;45.656;11.302;2023-05-07T09:26:08;98284.00;;;21.76;57.61
33161;BME280;19522;45.656;11.302;2023-05-07T09:28:40;98267.28;;;21.61;60.14
33161;BME280;19522;45.656;11.302;2023-05-07T09:31:07;98346.28;;;22.37;59.51
33161;BME280;19522;45.656;11.302;2023-05-07T09:33:33;98215.09;;;21.64;58.40
33161;BME280;19522;45.656;11.302;2023-05-07T09:36:02;98325.38;;;22.52;58.13
33161;BME280;19522;45.656;11.302;2023-05-07T09:38:28;98326.50;;;22.61;57.49
33161;BME280;19522;45.656;11.302;2023-05-07T09:43:33;98342.09;;;22.83;58.46
33161;BME280;19522;45.656;11.302;2023-05-07T09:46:02;98214.41;;;21.85;58.34
33161;BME280;19522;45.656;11.302;2023-05-07T09:48:29;98271.47;;;22.12;58.08
33161;BME280;19522;45.656;11.302;2023-05-07T09:50:56;98320.41;;;22.59;58.42
33161;BME280;19522;45.656;11.302;2023-05-07T09:53:26;98256.09;;;22.31;58.49
33161;BME280;19522;45.656;11.302;2023-05-07T09:55:53;98273.38;;;22.54;57.79
33161;BME280;19522;45.656;11.302;2023-05-07T09:58:21;98332.09;;;22.77;57.92
33161;BME280;19522;45.656;11.302;2023-05-07T10:00:48;98277.88;;;22.22;58.06
33161;BME280;19522;45.656;11.302;2023-05-07T10:03:15;98294.91;;;21.99;59.75
33161;BME280;19522;45.656;11.302;2023-05-07T10:05:44;98330.09;;;22.14;63.18
33161;BME280;19522;45.656;11.302;2023-05-07T10:08:10;98334.84;;;21.81;66.58
33161;BME280;19522;45.656;11.302;2023-05-07T10:10:36;98388.38;;;22.02;64.98
33161;BME280;19522;45.656;11.302;2023-05-07T10:13:03;98342.47;;;21.63;64.41
33161;BME280;19522;45.656;11.302;2023-05-07T10:15:31;98331.84;;;21.50;63.57
33161;BME280;19522;45.656;11.302;2023-05-07T10:17:57;98269.91;;;21.13;63.43
33161;BME280;19522;45.656;11.302;2023-05-07T10:20:23;98375.22;;;21.82;62.18
33161;BME280;19522;45.656;11.302;2023-05-07T10:22:49;98382.09;;;21.79;59.43
33161;BME280;19522;45.656;11.302;2023-05-07T10:25:23;98328.69;;;21.68;57.71
33161;BME280;19522;45.656;11.302;2023-05-07T10:27:52;98320.94;;;21.65;59.01
33161;BME280;19522;45.656;11.302;2023-05-07T10:32:59;98334.53;;;21.44;59.01
33161;BME280;19522;45.656;11.302;2023-05-07T10:35:32;98323.69;;;21.38;59.97
33161;BME280;19522;45.656;11.302;2023-05-07T10:38:02;98304.53;;;21.26;59.21
33161;BME280;19522;45.656;11.302;2023-05-07T10:40:29;98311.38;;;21.51;59.04
33161;BME280;19522;45.656;11.302;2023-05-07T10:42:56;98378.22;;;22.13;59.00
33161;BME280;19522;45.656;11.302;2023-05-07T10:45:22;98369.22;;;22.33;57.94
33161;BME280;19522;45.656;11.302;2023-05-07T10:48:08;98372.69;;;22.50;58.42
33161;BME280;19522;45.656;11.302;2023-05-07T10:50:34;98376.31;;;22.66;59.68
33161;BME280;19522;45.656;11.302;2023-05-07T10:55:49;98378.69;;;23.00;60.15
33161;BME280;19522;45.656;11.302;2023-05-07T10:58:28;98366.78;;;23.00;61.00
33161;BME280;19522;45.656;11.302;2023-05-07T11:01:00;98353.78;;;23.00;62.20
33161;BME280;19522;45.656;11.302;2023-05-07T11:03:27;98355.94;;;22.88;63.75
33161;BME280;19522;45.656;11.302;2023-05-07T11:06:08;98365.41;;;23.02;63.23
33161;BME280;19522;45.656;11.302;2023-05-07T11:11:19;98355.69;;;22.95;63.29
33161;BME280;19522;45.656;11.302;2023-05-07T11:16:22;98341.56;;;22.96;63.18
33161;BME280;19522;45.656;11.302;2023-05-07T11:18:54;98344.84;;;22.78;66.09
33161;BME280;19522;45.656;11.302;2023-05-07T11:24:01;98288.41;;;22.89;65.82
33161;BME280;19522;45.656;11.302;2023-05-07T11:26:29;98328.06;;;23.15;64.01
33161;BME280;19522;45.656;11.302;2023-05-07T11:28:54;98346.41;;;23.37;64.46
33161;BME280;19522;45.656;11.302;2023-05-07T11:31:25;98355.53;;;23.32;66.58
33161;BME280;19522;45.656;11.302;2023-05-07T11:33:52;98337.53;;;23.50;64.90
33161;BME280;19522;45.656;11.302;2023-05-07T11:36:18;98256.09;;;23.36;62.38
33161;BME280;19522;45.656;11.302;2023-05-07T11:38:45;98329.47;;;23.90;56.70
33161;BME280;19522;45.656;11.302;2023-05-07T11:41:11;98272.41;;;23.94;56.85
33161;BME280;19522;45.656;11.302;2023-05-07T11:43:36;98320.50;;;24.55;55.70
33161;BME280;19522;45.656;11.302;2023-05-07T11:46:07;98313.59;;;24.48;52.52
33161;BME280;19522;45.656;11.302;2023-05-07T11:48:33;98308.06;;;24.37;54.48
33161;BME280;19522;45.656;11.302;2023-05-07T11:53:34;98286.19;;;24.20;55.98
33161;BME280;19522;45.656;11.302;2023-05-07T11:56:00;98242.44;;;23.86;55.63
33161;BME280;19522;45.656;11.302;2023-05-07T11:58:26;98196.44;;;23.85;53.63
33161;BME280;19522;45.656;11.302;2023-05-07T12:00:53;98305.31;;;24.27;55.76
33161;BME280;19522;45.656;11.302;2023-05-07T12:03:19;98303.81;;;24.66;52.11
33161;BME280;19522;45.656;11.302;2023-05-07T12:05:46;98281.09;;;24.53;53.05
33161;BME280;19522;45.656;11.302;2023-05-07T12:08:19;98299.81;;;24.87;50.35
33161;BME280;19522;45.656;11.302;2023-05-07T12:10:46;98296.59;;;24.70;50.50
33161;BME280;19522;45.656;11.302;2023-05-07T12:15:40;98232.38;;;24.26;49.38
33161;BME280;19522;45.656;11.302;2023-05-07T12:18:06;98184.44;;;24.71;50.61
33161;BME280;19522;45.656;11.302;2023-05-07T12:20:31;98172.22;;;24.67;49.32
33161;BME280;19522;45.656;11.302;2023-05-07T12:22:57;98302.63;;;25.67;49.87
33161;BME280;19522;45.656;11.302;2023-05-07T12:25:23;98138.59;;;24.73;48.31
33161;BME280;19522;45.656;11.302;2023-05-07T12:27:52;98299.44;;;25.79;48.31
33161;BME280;19522;45.656;11.302;2023-05-07T12:30:18;98290.78;;;25.56;48.73
33161;BME280;19522;45.656;11.302;2023-05-07T12:32:45;98291.28;;;25.24;50.28
33161;BME280;19522;45.656;11.302;2023-05-07T12:35:10;98293.75;;;24.80;51.92
33161;BME280;19522;45.656;11.302;2023-05-07T12:37:36;98305.50;;;25.12;53.40
33161;BME280;19522;45.656;11.302;2023-05-07T12:40:09;98243.16;;;24.88;54.44
33161;BME280;19522;45.656;11.302;2023-05-07T12:42:36;98307.91;;;25.29;55.18
33161;BME280;19522;45.656;11.302;2023-05-07T12:45:15;98306.47;;;25.36;53.63
33161;BME280;19522;45.656;11.302;2023-05-07T12:47:45;98237.59;;;24.94;52.88
33161;BME280;19522;45.656;11.302;2023-05-07T12:50:11;98295.63;;;25.40;53.42
33161;BME280;19522;45.656;11.302;2023-05-07T12:52:37;98268.16;;;24.88;54.44
33161;BME280;19522;45.656;11.302;2023-05-07T12:55:07;98219.84;;;24.34;53.92
33161;BME280;19522;45.656;11.302;2023-05-07T12:57:40;98283.03;;;24.53;53.98
33161;BME280;19522;45.656;11.302;2023-05-07T13:00:07;98254.53;;;24.32;54.67
33161;BME280;19522;45.656;11.302;2023-05-07T13:02:34;98287.63;;;24.07;56.45
33161;BME280;19522;45.656;11.302;2023-05-07T13:05:01;98275.19;;;23.74;56.64
33161;BME280;19522;45.656;11.302;2023-05-07T13:07:26;98131.72;;;22.62;57.26